createdAt,value
2022-09-10T00:02:45.158Z,98659.72
2022-09-10T00:05:47.495Z,98665.13
2022-09-10T00:08:49.573Z,98667.66
2022-09-10T00:11:51.647Z,98661.50
2022-09-10T00:14:54.413Z,98667.66
2022-09-10T00:17:56.445Z,98669.38
2022-09-10T00:20:59.293Z,98664.63
2022-09-10T00:24:02.231Z,98670.38
2022-09-10T00:27:04.570Z,98674.56
2022-09-10T00:30:07.579Z,98677.09
2022-09-10T00:33:10.071Z,98686.25
2022-09-10T00:36:17.654Z,98680.59
2022-09-10T00:39:20.465Z,98691.63
2022-09-10T00:42:23.018Z,98703.31
2022-09-10T00:45:30.101Z,98695.31
2022-09-10T00:48:32.181Z,98694.56
2022-09-10T00:51:35.130Z,98697.31
2022-09-10T00:54:37.248Z,98693.22
2022-09-10T00:57:39.278Z,98695.88
2022-09-10T01:00:41.927Z,98706.97
2022-09-10T01:03:44.114Z,98710.56
2022-09-10T01:06:46.452Z,98704.78
2022-09-10T01:09:48.495Z,98700.44
2022-09-10T01:13:09.221Z,98698.06
2022-09-10T01:16:27.586Z,98712.03
2022-09-10T01:20:00.611Z,98699.28
2022-09-10T01:23:58.182Z,98708.56
2022-09-10T01:27:51.261Z,98715.09
2022-09-10T01:30:58.308Z,98712.03
2022-09-10T01:34:08.203Z,98716.56
2022-09-10T01:37:17.393Z,98714.97
2022-09-10T01:40:19.561Z,98709.66
2022-09-10T01:43:23.032Z,98721.16
2022-09-10T01:46:53.894Z,98726.72
2022-09-10T01:50:17.633Z,98722.09
2022-09-10T01:53:35.330Z,98729.63
2022-09-10T01:56:51.928Z,98736.56
2022-09-10T02:00:10.014Z,98737.91
2022-09-10T02:03:22.790Z,98742.66
2022-09-10T02:06:29.645Z,98744.13
2022-09-10T02:09:33.594Z,98744.69
2022-09-10T02:12:36.380Z,98744.56
2022-09-10T02:15:56.835Z,98756.50
2022-09-10T02:19:01.430Z,98757.75
2022-09-10T02:22:03.458Z,98756.72
2022-09-10T02:25:07.295Z,98755.63
2022-09-10T02:28:09.531Z,98751.53
2022-09-10T02:31:12.689Z,98758.38
2022-09-10T02:34:16.090Z,98764.09
2022-09-10T02:37:21.166Z,98766.56
2022-09-10T02:40:23.249Z,98765.69
2022-09-10T02:43:29.327Z,98775.44
2022-09-10T02:46:33.867Z,98771.88
2022-09-10T02:49:35.914Z,98780.50
2022-09-10T02:52:38.150Z,98794.41
2022-09-10T02:55:46.256Z,98792.28
2022-09-10T02:58:49.363Z,98789.81
2022-09-10T03:01:51.816Z,98800.19
2022-09-10T03:04:53.962Z,98790.97
2022-09-10T03:07:56.072Z,98788.91
2022-09-10T03:10:59.451Z,98789.72
2022-09-10T03:14:01.483Z,98796.03
2022-09-10T03:17:05.187Z,98796.97
2022-09-10T03:20:08.219Z,98802.16
2022-09-10T03:23:11.274Z,98800.69
2022-09-10T03:26:14.503Z,98803.38
2022-09-10T03:29:17.215Z,98806.03
2022-09-10T03:32:19.662Z,98806.91
2022-09-10T03:35:22.489Z,98807.44
2022-09-10T03:38:25.255Z,98802.16
2022-09-10T03:41:28.482Z,98802.16
2022-09-10T03:44:33.697Z,98795.94
2022-09-10T03:47:37.657Z,98803.28
2022-09-10T03:50:39.951Z,98797.34
2022-09-10T03:53:43.439Z,98804.44
2022-09-10T03:56:45.639Z,98803.25
2022-09-10T03:59:47.822Z,98808.41
2022-09-10T04:02:50.940Z,98804.75
2022-09-10T04:05:53.047Z,98799.22
2022-09-10T04:08:55.131Z,98801.66
2022-09-10T04:11:58.878Z,98802.78
2022-09-10T04:15:04.162Z,98805.47
2022-09-10T04:18:07.374Z,98816.78
2022-09-10T04:21:10.314Z,98815.41
2022-09-10T04:24:14.942Z,98824.66
2022-09-10T04:27:17.565Z,98824.88
2022-09-10T04:30:19.999Z,98820.72
2022-09-10T04:33:22.083Z,98821.78
2022-09-10T04:36:25.152Z,98835.38
2022-09-10T04:39:27.267Z,98819.63
2022-09-10T04:42:31.803Z,98830.16
2022-09-10T04:45:34.701Z,98827.97
2022-09-10T04:48:37.004Z,98831.44
2022-09-10T04:51:39.411Z,98841.38
2022-09-10T04:54:41.767Z,98839.13
2022-09-10T04:57:44.714Z,98838.94
2022-09-10T05:00:47.039Z,98850.75
2022-09-10T05:03:49.179Z,98854.16
2022-09-10T05:06:51.318Z,98848.31
2022-09-10T05:09:53.631Z,98863.44
2022-09-10T05:12:55.759Z,98864.50
2022-09-10T05:16:01.660Z,98862.47
2022-09-10T05:19:06.291Z,98865.78
2022-09-10T05:22:16.242Z,98864.69
2022-09-10T05:25:18.594Z,98871.88
2022-09-10T05:28:21.981Z,98876.38
2022-09-10T05:31:24.481Z,98875.81
2022-09-10T05:34:27.210Z,98877.00
2022-09-10T05:37:29.370Z,98881.59
2022-09-10T05:40:31.427Z,98877.50
2022-09-10T05:43:34.008Z,98881.50
2022-09-10T05:46:36.119Z,98888.59
2022-09-10T05:49:47.971Z,98888.56
2022-09-10T05:52:50.127Z,98884.66
2022-09-10T05:55:52.706Z,98893.88
2022-09-10T05:58:54.891Z,98903.22
2022-09-10T06:01:58.161Z,98908.38
2022-09-10T06:05:00.780Z,98918.41
2022-09-10T06:08:07.895Z,98920.66
2022-09-10T06:11:13.446Z,98921.09
2022-09-10T06:14:20.288Z,98934.81
2022-09-10T06:17:22.525Z,98937.69
2022-09-10T06:20:25.573Z,98938.75
2022-09-10T06:23:27.902Z,98949.66
2022-09-10T06:26:30.002Z,98948.03
2022-09-10T06:29:38.939Z,98949.81
2022-09-10T06:32:43.381Z,98948.69
2022-09-10T06:35:56.042Z,98961.88
2022-09-10T06:39:01.684Z,98960.84
2022-09-10T06:42:06.534Z,98955.56
2022-09-10T06:45:28.192Z,98957.06
2022-09-10T06:48:49.178Z,98966.88
2022-09-10T06:51:53.437Z,98957.97
2022-09-10T06:54:56.543Z,98961.91
2022-09-10T06:58:09.284Z,98962.50
2022-09-10T07:01:18.916Z,98956.81
2022-09-10T07:04:25.258Z,98948.66
2022-09-10T07:07:28.336Z,98944.19
2022-09-10T07:10:31.410Z,98948.44
2022-09-10T07:13:34.122Z,98953.75
2022-09-10T07:16:36.774Z,98951.16
2022-09-10T07:19:39.138Z,98963.34
2022-09-10T07:22:48.092Z,98965.78
2022-09-10T07:25:53.943Z,98966.94
2022-09-10T07:29:11.406Z,98964.41
2022-09-10T07:32:13.931Z,98972.53
2022-09-10T07:35:17.174Z,98970.09
2022-09-10T07:38:20.658Z,98980.47
2022-09-10T07:41:24.090Z,98989.63
2022-09-10T07:44:26.334Z,98985.66
2022-09-10T07:47:30.206Z,98991.09
2022-09-10T07:50:32.622Z,98990.22
2022-09-10T07:53:35.931Z,98996.44
2022-09-10T07:56:39.447Z,99006.16
2022-09-10T07:59:43.797Z,98999.09
2022-09-10T08:02:49.554Z,99002.56
2022-09-10T08:05:55.379Z,98997.44
2022-09-10T08:08:57.496Z,99001.09
2022-09-10T08:11:59.850Z,99002.53
2022-09-10T08:15:02.425Z,99001.22
2022-09-10T08:18:05.016Z,99001.22
2022-09-10T08:21:10.802Z,99003.50
2022-09-10T08:24:13.479Z,99012.09
2022-09-10T08:27:18.509Z,99014.31
2022-09-10T08:30:22.191Z,99025.28
2022-09-10T08:33:25.280Z,99018.09
2022-09-10T08:36:27.559Z,99026.38
2022-09-10T08:39:32.853Z,99018.59
2022-09-10T08:42:49.282Z,99034.66
2022-09-10T08:45:53.083Z,99032.38
2022-09-10T08:49:11.631Z,99030.34
2022-09-10T08:52:42.078Z,99044.25
2022-09-10T08:55:53.078Z,99047.78
2022-09-10T08:59:04.541Z,99053.59
2022-09-10T09:02:48.998Z,99055.97
2022-09-10T09:06:02.130Z,99056.09
2022-09-10T09:09:15.603Z,99061.88
2022-09-10T09:12:39.401Z,99069.94
2022-09-10T09:16:05.593Z,99070.50
2022-09-10T09:19:17.211Z,99059.38
2022-09-10T09:22:27.365Z,99067.06
2022-09-10T09:25:45.166Z,99064.63
2022-09-10T09:29:18.107Z,99070.25
2022-09-10T09:32:21.789Z,99080.56
2022-09-10T09:35:57.731Z,99078.34
2022-09-10T09:39:00.240Z,99090.25
2022-09-10T09:42:29.277Z,99085.16
2022-09-10T09:45:39.055Z,99091.19
2022-09-10T09:48:42.080Z,99102.66
2022-09-10T09:51:46.144Z,99106.81
2022-09-10T09:55:14.758Z,99105.69
2022-09-10T09:58:26.478Z,99110.25
2022-09-10T10:01:39.579Z,99105.78
2022-09-10T10:05:07.308Z,99108.50
2022-09-10T10:08:34.437Z,99116.22
2022-09-10T10:11:40.847Z,99119.28
2022-09-10T10:14:43.304Z,99114.31
2022-09-10T10:17:47.230Z,99116.69
2022-09-10T10:21:13.519Z,99121.31
2022-09-10T10:24:35.810Z,99120.34
2022-09-10T10:27:48.307Z,99122.63
2022-09-10T10:31:00.262Z,99125.00
2022-09-10T10:35:00.927Z,99121.09
2022-09-10T10:38:28.340Z,99120.16
2022-09-10T10:41:47.802Z,99131.56
2022-09-10T10:45:31.236Z,99125.13
2022-09-10T10:49:16.446Z,99132.78
2022-09-10T10:52:36.950Z,99135.72
2022-09-10T10:55:50.359Z,99137.66
2022-09-10T10:59:49.217Z,99137.47
2022-09-10T11:03:18.790Z,99132.31
2022-09-10T11:06:24.639Z,99135.44
2022-09-10T11:09:29.385Z,99134.00
2022-09-10T11:13:10.975Z,99134.38
2022-09-10T11:16:24.088Z,99132.38
2022-09-10T11:19:38.369Z,99124.72
2022-09-10T11:22:55.831Z,99126.66
2022-09-10T11:26:26.913Z,99127.38
2022-09-10T11:30:05.556Z,99127.22
2022-09-10T11:33:23.442Z,99134.56
2022-09-10T11:36:29.754Z,99134.19
2022-09-10T11:39:37.699Z,99136.94
2022-09-10T11:42:46.121Z,99132.72
2022-09-10T11:45:55.042Z,99134.50
2022-09-10T11:49:07.434Z,99138.13
2022-09-10T11:52:11.985Z,99136.28
2022-09-10T11:55:15.703Z,99139.81
2022-09-10T11:58:20.367Z,99136.06
2022-09-10T12:02:26.655Z,99143.69
2022-09-10T12:06:23.923Z,99151.06
2022-09-10T12:10:00.422Z,99150.03
2022-09-10T12:13:12.626Z,99146.59
2022-09-10T12:16:22.196Z,99136.50
2022-09-10T12:19:33.917Z,99143.19
2022-09-10T12:22:40.294Z,99154.22
2022-09-10T12:25:42.482Z,99149.28
2022-09-10T12:28:53.751Z,99159.78
2022-09-10T12:32:21.005Z,99161.22
2022-09-10T12:35:32.691Z,99165.25
2022-09-10T12:39:16.551Z,99169.78
2022-09-10T12:42:33.626Z,99171.97
2022-09-10T12:46:09.822Z,99163.78
2022-09-10T12:49:12.938Z,99167.50
2022-09-10T12:52:44.798Z,99172.44
2022-09-10T12:56:02.357Z,99166.41
2022-09-10T12:59:53.381Z,99174.94
2022-09-10T13:03:17.828Z,99175.41
2022-09-10T13:06:20.045Z,99174.88
2022-09-10T13:09:28.890Z,99176.31
2022-09-10T13:12:32.769Z,99172.94
2022-09-10T13:15:37.936Z,99175.88
2022-09-10T13:18:41.903Z,99168.28
2022-09-10T13:21:43.838Z,99169.59
2022-09-10T13:25:25.241Z,99172.09
2022-09-10T13:28:30.336Z,99175.81
2022-09-10T13:31:36.622Z,99175.09
2022-09-10T13:35:21.958Z,99179.13
2022-09-10T13:38:52.442Z,99180.66
2022-09-10T13:42:15.468Z,99180.34
2022-09-10T13:45:29.435Z,99168.38
2022-09-10T13:48:53.027Z,99173.25
2022-09-10T13:51:57.512Z,99182.66
2022-09-10T13:54:59.615Z,99183.19
2022-09-10T13:58:16.637Z,99194.69
2022-09-10T14:01:18.784Z,99183.06
2022-09-10T14:04:31.770Z,99193.69
2022-09-10T14:07:34.039Z,99195.16
2022-09-10T14:10:53.365Z,99196.47
2022-09-10T14:14:29.545Z,99205.88
2022-09-10T14:17:45.197Z,99200.53
2022-09-10T14:20:47.314Z,99198.91
2022-09-10T14:23:49.405Z,99190.63
2022-09-10T14:27:25.689Z,99193.38
2022-09-10T14:30:29.938Z,99202.38
2022-09-10T14:33:34.072Z,99197.63
2022-09-10T14:36:36.184Z,99202.88
2022-09-10T14:39:38.261Z,99198.06
2022-09-10T14:42:40.312Z,99199.00
2022-09-10T14:45:47.821Z,99193.66
2022-09-10T14:48:59.055Z,99187.72
2022-09-10T14:52:01.820Z,99193.25
2022-09-10T14:55:04.267Z,99191.94
2022-09-10T14:58:06.422Z,99193.38
2022-09-10T15:01:09.373Z,99191.72
2022-09-10T15:04:16.806Z,99196.81
2022-09-10T15:07:19.090Z,99188.63
2022-09-10T15:10:21.210Z,99196.25
2022-09-10T15:13:23.351Z,99196.94
2022-09-10T15:16:25.714Z,99187.94
2022-09-10T15:19:27.976Z,99181.22
2022-09-10T15:22:31.603Z,99180.84
2022-09-10T15:25:46.495Z,99183.94
2022-09-10T15:28:48.543Z,99190.06
2022-09-10T15:31:51.381Z,99197.78
2022-09-10T15:34:53.439Z,99199.31
2022-09-10T15:37:55.523Z,99196.66
2022-09-10T15:41:12.648Z,99196.53
2022-09-10T15:44:15.070Z,99200.44
2022-09-10T15:47:17.092Z,99205.94
2022-09-10T15:50:19.203Z,99205.66
2022-09-10T15:53:21.274Z,99213.06
2022-09-10T15:56:26.626Z,99220.91
2022-09-10T15:59:28.677Z,99219.66
2022-09-10T16:02:30.769Z,99226.25
2022-09-10T16:05:35.315Z,99222.16
2022-09-10T16:08:37.411Z,99226.47
2022-09-10T16:11:41.117Z,99224.59
2022-09-10T16:14:44.700Z,99234.09
2022-09-10T16:17:46.719Z,99240.00
2022-09-10T16:20:48.766Z,99235.81
2022-09-10T16:23:52.375Z,99245.19
2022-09-10T16:26:54.395Z,99246.75
2022-09-10T16:29:56.423Z,99244.53
2022-09-10T16:32:58.707Z,99245.91
2022-09-10T16:36:05.288Z,99249.19
2022-09-10T16:39:12.775Z,99242.22
2022-09-10T16:42:14.831Z,99252.19
2022-09-10T16:45:16.943Z,99250.13
2022-09-10T16:48:19.011Z,99254.34
2022-09-10T16:51:25.538Z,99251.16
2022-09-10T16:54:29.025Z,99252.34
2022-09-10T16:57:31.248Z,99245.66
2022-09-10T17:00:33.331Z,99249.38
2022-09-10T17:03:39.699Z,99254.28
2022-09-10T17:06:41.991Z,99252.28
2022-09-10T17:09:44.048Z,99257.97
2022-09-10T17:12:46.160Z,99256.88
2022-09-10T17:15:48.237Z,99263.06
2022-09-10T17:19:17.542Z,99264.69
2022-09-10T17:22:19.590Z,99263.09
2022-09-10T17:25:21.639Z,99270.53
2022-09-10T17:28:23.696Z,99268.16
2022-09-10T17:31:27.751Z,99271.09
2022-09-10T17:34:29.923Z,99278.88
2022-09-10T17:37:32.340Z,99282.06
2022-09-10T17:40:34.511Z,99288.88
2022-09-10T17:43:37.530Z,99287.06
2022-09-10T17:46:39.774Z,99278.34
2022-09-10T17:49:43.194Z,99290.00
2022-09-10T17:52:45.935Z,99294.47
2022-09-10T17:55:48.056Z,99287.16
2022-09-10T17:58:51.692Z,99288.53
2022-09-10T18:01:53.833Z,99288.63
2022-09-10T18:04:56.046Z,99291.75
2022-09-10T18:07:58.100Z,99293.63
2022-09-10T18:11:06.764Z,99293.53
2022-09-10T18:14:12.228Z,99301.28
2022-09-10T18:17:14.329Z,99305.66
2022-09-10T18:20:16.542Z,99303.31
2022-09-10T18:23:19.420Z,99302.88
2022-09-10T18:26:23.606Z,99309.44
2022-09-10T18:29:27.816Z,99302.41
2022-09-10T18:32:29.850Z,99311.22
2022-09-10T18:35:31.947Z,99314.03
2022-09-10T18:38:33.972Z,99313.66
2022-09-10T18:41:36.526Z,99319.66
2022-09-10T18:44:38.904Z,99316.84
2022-09-10T18:47:45.083Z,99312.28
2022-09-10T18:50:47.322Z,99318.84
2022-09-10T18:53:52.586Z,99316.94
2022-09-10T18:56:54.768Z,99313.34
2022-09-10T18:59:57.176Z,99312.16
2022-09-10T19:02:59.202Z,99306.28
2022-09-10T19:06:08.220Z,99312.19
2022-09-10T19:09:15.786Z,99312.41
2022-09-10T19:12:19.325Z,99323.34
2022-09-10T19:15:22.195Z,99327.66
2022-09-10T19:18:27.093Z,99327.88
2022-09-10T19:21:30.078Z,99333.03
2022-09-10T19:24:53.494Z,99341.72
2022-09-10T19:27:55.046Z,99344.34
2022-09-10T19:31:01.423Z,99336.78
2022-09-10T19:34:06.170Z,99345.66
2022-09-10T19:37:08.242Z,99350.09
2022-09-10T19:40:12.049Z,99335.94
2022-09-10T19:43:14.116Z,99334.31
2022-09-10T19:46:17.064Z,99337.59
2022-09-10T19:49:19.130Z,99333.47
2022-09-10T19:52:21.682Z,99330.66
2022-09-10T19:55:23.862Z,99331.53
2022-09-10T19:58:25.910Z,99336.19
2022-09-10T20:01:33.101Z,99337.16
2022-09-10T20:04:35.824Z,99342.97
2022-09-10T20:07:37.876Z,99339.13
2022-09-10T20:10:39.995Z,99345.81
2022-09-10T20:13:42.239Z,99352.91
2022-09-10T20:16:45.203Z,99357.88
2022-09-10T20:19:47.510Z,99346.19
2022-09-10T20:22:49.610Z,99342.19
2022-09-10T20:25:51.667Z,99343.63
2022-09-10T20:29:28.534Z,99346.94
2022-09-10T20:32:30.600Z,99348.34
2022-09-10T20:35:33.144Z,99352.81
2022-09-10T20:38:35.274Z,99345.91
2022-09-10T20:41:37.957Z,99350.34
2022-09-10T20:44:40.003Z,99350.84
2022-09-10T20:47:43.175Z,99356.34
2022-09-10T20:50:56.013Z,99358.34
2022-09-10T20:53:58.198Z,99357.09
2022-09-10T20:57:00.303Z,99355.38
2022-09-10T21:00:02.736Z,99355.00
2022-09-10T21:03:04.782Z,99362.81
2022-09-10T21:06:08.510Z,99355.25
2022-09-10T21:09:10.606Z,99361.50
2022-09-10T21:12:13.194Z,99352.84
2022-09-10T21:15:15.797Z,99354.69
2022-09-10T21:18:17.847Z,99353.88
2022-09-10T21:21:23.436Z,99356.69
2022-09-10T21:24:26.875Z,99353.13
2022-09-10T21:27:29.316Z,99353.75
2022-09-10T21:30:31.387Z,99355.00
2022-09-10T21:33:33.808Z,99354.97
2022-09-10T21:36:37.386Z,99354.19
2022-09-10T21:39:39.505Z,99355.03
2022-09-10T21:42:41.723Z,99352.75
2022-09-10T21:45:43.851Z,99360.94
2022-09-10T21:48:46.020Z,99366.56
2022-09-10T21:51:48.112Z,99356.06
2022-09-10T21:54:50.214Z,99350.06
2022-09-10T21:57:52.402Z,99354.44
2022-09-10T22:00:58.246Z,99357.53
2022-09-10T22:04:00.815Z,99351.03
2022-09-10T22:07:04.778Z,99348.28
2022-09-10T22:10:07.637Z,99356.41
2022-09-10T22:13:11.711Z,99353.56
2022-09-10T22:16:13.867Z,99352.88
2022-09-10T22:19:24.259Z,99349.56
2022-09-10T22:22:26.937Z,99354.69
2022-09-10T22:25:29.666Z,99350.66
2022-09-10T22:28:34.947Z,99350.94
2022-09-10T22:31:37.376Z,99358.22
2022-09-10T22:34:39.485Z,99350.78
2022-09-10T22:37:41.585Z,99347.31
2022-09-10T22:40:43.644Z,99358.34
2022-09-10T22:43:46.264Z,99343.38
2022-09-10T22:46:48.426Z,99343.06
2022-09-10T22:49:50.685Z,99351.13
2022-09-10T22:52:52.694Z,99351.13
2022-09-10T22:55:54.754Z,99346.53
2022-09-10T22:58:58.417Z,99354.31
2022-09-10T23:02:01.286Z,99348.47
2022-09-10T23:05:03.846Z,99347.34
2022-09-10T23:08:05.938Z,99346.28
2022-09-10T23:11:21.590Z,99354.84
2022-09-10T23:14:25.534Z,99346.94
2022-09-10T23:17:27.646Z,99350.34
2022-09-10T23:20:29.751Z,99356.78
2022-09-10T23:23:31.875Z,99355.09
2022-09-10T23:26:34.135Z,99353.94
2022-09-10T23:29:36.531Z,99355.00
2022-09-10T23:32:38.862Z,99352.19
2022-09-10T23:35:40.994Z,99355.63
2022-09-10T23:38:43.863Z,99341.31
2022-09-10T23:41:46.831Z,99344.09
2022-09-10T23:44:49.031Z,99339.69
2022-09-10T23:47:51.291Z,99338.22
2022-09-10T23:50:54.379Z,99334.50
2022-09-10T23:53:56.439Z,99342.97
2022-09-10T23:56:58.539Z,99345.03
